sensor_id;sensor_type;location;lat;lon;timestamp;pressure;altitude;pressure_sealevel;temperature
58307;BMP280;44116;50.884;4.768;2024-01-16T00:00:05;100530.0;;;-0.3
58307;BMP280;44116;50.884;4.768;2024-01-16T00:02:04;100530.0;;;-0.2
58307;BMP280;44116;50.884;4.768;2024-01-16T00:04:04;100530.0;;;-0.2
58307;BMP280;44116;50.884;4.768;2024-01-16T00:06:03;100530.0;;;-0.1
58307;BMP280;44116;50.884;4.768;2024-01-16T00:08:03;100520.0;;;-0.1
58307;BMP280;44116;50.884;4.768;2024-01-16T00:10:02;100510.0;;;-0.1
58307;BMP280;44116;50.884;4.768;2024-01-16T00:12:02;100520.0;;;-0.1
58307;BMP280;44116;50.884;4.768;2024-01-16T00:16:01;100520.0;;;-0.0
58307;BMP280;44116;50.884;4.768;2024-01-16T00:18:00;100510.0;;;-0.2
58307;BMP280;44116;50.884;4.768;2024-01-16T00:20:00;100520.0;;;-0.1
58307;BMP280;44116;50.884;4.768;2024-01-16T00:23:59;100510.0;;;-0.1
58307;BMP280;44116;50.884;4.768;2024-01-16T00:25:58;100530.0;;;-0.0
58307;BMP280;44116;50.884;4.768;2024-01-16T00:27:58;100530.0;;;-0.1
58307;BMP280;44116;50.884;4.768;2024-01-16T00:29:57;100520.0;;;-0.1
58307;BMP280;44116;50.884;4.768;2024-01-16T00:31:57;100530.0;;;0.0
58307;BMP280;44116;50.884;4.768;2024-01-16T00:33:56;100520.0;;;-0.0
58307;BMP280;44116;50.884;4.768;2024-01-16T00:35:56;100530.0;;;-0.1
58307;BMP280;44116;50.884;4.768;2024-01-16T00:37:55;100550.0;;;-0.0
58307;BMP280;44116;50.884;4.768;2024-01-16T00:39:55;100540.0;;;-0.2
58307;BMP280;44116;50.884;4.768;2024-01-16T00:41:54;100520.0;;;-0.2
58307;BMP280;44116;50.884;4.768;2024-01-16T00:45:53;100530.0;;;-0.2
58307;BMP280;44116;50.884;4.768;2024-01-16T00:47:53;100520.0;;;-0.4
58307;BMP280;44116;50.884;4.768;2024-01-16T00:51:52;100520.0;;;-0.3
58307;BMP280;44116;50.884;4.768;2024-01-16T00:53:52;100530.0;;;-0.3
58307;BMP280;44116;50.884;4.768;2024-01-16T00:55:51;100510.0;;;-0.4
58307;BMP280;44116;50.884;4.768;2024-01-16T00:57:51;100520.0;;;-0.6
58307;BMP280;44116;50.884;4.768;2024-01-16T00:59:50;100520.0;;;-0.5
58307;BMP280;44116;50.884;4.768;2024-01-16T01:01:49;100520.0;;;-0.5
58307;BMP280;44116;50.884;4.768;2024-01-16T01:03:49;100510.0;;;-0.6
58307;BMP280;44116;50.884;4.768;2024-01-16T01:05:48;100520.0;;;-0.5
58307;BMP280;44116;50.884;4.768;2024-01-16T01:07:48;100530.0;;;-0.5
58307;BMP280;44116;50.884;4.768;2024-01-16T01:09:47;100520.0;;;-0.5
58307;BMP280;44116;50.884;4.768;2024-01-16T01:11:47;100520.0;;;-0.4
58307;BMP280;44116;50.884;4.768;2024-01-16T01:13:46;100530.0;;;-0.4
58307;BMP280;44116;50.884;4.768;2024-01-16T01:15:46;100520.0;;;-0.4
58307;BMP280;44116;50.884;4.768;2024-01-16T01:17:45;100520.0;;;-0.3
58307;BMP280;44116;50.884;4.768;2024-01-16T01:19:45;100510.0;;;-0.4
58307;BMP280;44116;50.884;4.768;2024-01-16T01:21:44;100520.0;;;-0.3
58307;BMP280;44116;50.884;4.768;2024-01-16T01:23:44;100500.0;;;-0.4
58307;BMP280;44116;50.884;4.768;2024-01-16T01:25:44;100510.0;;;-0.4
58307;BMP280;44116;50.884;4.768;2024-01-16T01:27:43;100510.0;;;-0.4
58307;BMP280;44116;50.884;4.768;2024-01-16T01:29:42;100520.0;;;-0.4
58307;BMP280;44116;50.884;4.768;2024-01-16T01:31:44;100510.0;;;-0.4
58307;BMP280;44116;50.884;4.768;2024-01-16T01:33:41;100510.0;;;-0.4
58307;BMP280;44116;50.884;4.768;2024-01-16T01:35:41;100500.0;;;-0.4
58307;BMP280;44116;50.884;4.768;2024-01-16T01:37:40;100500.0;;;-0.3
58307;BMP280;44116;50.884;4.768;2024-01-16T01:39:40;100500.0;;;-0.4
58307;BMP280;44116;50.884;4.768;2024-01-16T01:41:39;100500.0;;;-0.4
58307;BMP280;44116;50.884;4.768;2024-01-16T01:43:39;100510.0;;;-0.3
58307;BMP280;44116;50.884;4.768;2024-01-16T01:45:38;100510.0;;;-0.4
58307;BMP280;44116;50.884;4.768;2024-01-16T01:47:38;100510.0;;;-0.3
58307;BMP280;44116;50.884;4.768;2024-01-16T01:49:37;100510.0;;;-0.4
58307;BMP280;44116;50.884;4.768;2024-01-16T01:51:37;100510.0;;;-0.3
58307;BMP280;44116;50.884;4.768;2024-01-16T01:53:36;100500.0;;;-0.3
58307;BMP280;44116;50.884;4.768;2024-01-16T01:55:36;100490.0;;;-0.3
58307;BMP280;44116;50.884;4.768;2024-01-16T01:57:35;100490.0;;;-0.4
58307;BMP280;44116;50.884;4.768;2024-01-16T01:59:35;100490.0;;;-0.4
58307;BMP280;44116;50.884;4.768;2024-01-16T02:01:34;100490.0;;;-0.3
58307;BMP280;44116;50.884;4.768;2024-01-16T02:07:33;100480.0;;;-0.4
58307;BMP280;44116;50.884;4.768;2024-01-16T02:09:32;100490.0;;;-0.4
58307;BMP280;44116;50.884;4.768;2024-01-16T02:11:32;100490.0;;;-0.5
58307;BMP280;44116;50.884;4.768;2024-01-16T02:13:31;100490.0;;;-0.5
58307;BMP280;44116;50.884;4.768;2024-01-16T02:15:31;100480.0;;;-0.6
58307;BMP280;44116;50.884;4.768;2024-01-16T02:17:30;100490.0;;;-0.6
58307;BMP280;44116;50.884;4.768;2024-01-16T02:19:30;100500.0;;;-0.5
58307;BMP280;44116;50.884;4.768;2024-01-16T02:21:31;100480.0;;;-0.7
58307;BMP280;44116;50.884;4.768;2024-01-16T02:23:29;100480.0;;;-0.8
58307;BMP280;44116;50.884;4.768;2024-01-16T02:25:29;100480.0;;;-0.8
58307;BMP280;44116;50.884;4.768;2024-01-16T02:27:28;100500.0;;;-0.7
58307;BMP280;44116;50.884;4.768;2024-01-16T02:29:27;100470.0;;;-0.8
58307;BMP280;44116;50.884;4.768;2024-01-16T02:31:27;100490.0;;;-0.7
58307;BMP280;44116;50.884;4.768;2024-01-16T02:33:26;100480.0;;;-0.7
58307;BMP280;44116;50.884;4.768;2024-01-16T02:37:26;100470.0;;;-1.0
58307;BMP280;44116;50.884;4.768;2024-01-16T02:39:25;100470.0;;;-1.0
58307;BMP280;44116;50.884;4.768;2024-01-16T02:41:25;100470.0;;;-1.0
58307;BMP280;44116;50.884;4.768;2024-01-16T02:43:24;100470.0;;;-1.0
58307;BMP280;44116;50.884;4.768;2024-01-16T02:45:25;100470.0;;;-1.0
58307;BMP280;44116;50.884;4.768;2024-01-16T02:47:23;100480.0;;;-1.0
58307;BMP280;44116;50.884;4.768;2024-01-16T02:49:23;100470.0;;;-1.0
58307;BMP280;44116;50.884;4.768;2024-01-16T02:51:22;100470.0;;;-1.0
58307;BMP280;44116;50.884;4.768;2024-01-16T02:53:21;100480.0;;;-0.9
58307;BMP280;44116;50.884;4.768;2024-01-16T02:55:21;100460.0;;;-1.1
58307;BMP280;44116;50.884;4.768;2024-01-16T02:57:20;100470.0;;;-1.1
58307;BMP280;44116;50.884;4.768;2024-01-16T03:01:19;100450.0;;;-1.2
58307;BMP280;44116;50.884;4.768;2024-01-16T03:03:19;100460.0;;;-1.1
58307;BMP280;44116;50.884;4.768;2024-01-16T03:05:18;100460.0;;;-1.2
58307;BMP280;44116;50.884;4.768;2024-01-16T03:07:18;100470.0;;;-1.1
58307;BMP280;44116;50.884;4.768;2024-01-16T03:09:17;100460.0;;;-1.1
58307;BMP280;44116;50.884;4.768;2024-01-16T03:11:18;100460.0;;;-1.1
58307;BMP280;44116;50.884;4.768;2024-01-16T03:13:16;100450.0;;;-1.3
58307;BMP280;44116;50.884;4.768;2024-01-16T03:15:16;100460.0;;;-1.2
58307;BMP280;44116;50.884;4.768;2024-01-16T03:17:15;100450.0;;;-1.3
58307;BMP280;44116;50.884;4.768;2024-01-16T03:19:15;100440.0;;;-1.3
58307;BMP280;44116;50.884;4.768;2024-01-16T03:21:14;100450.0;;;-1.4
58307;BMP280;44116;50.884;4.768;2024-01-16T03:25:13;100450.0;;;-1.3
58307;BMP280;44116;50.884;4.768;2024-01-16T03:27:13;100450.0;;;-1.3
58307;BMP280;44116;50.884;4.768;2024-01-16T03:29:12;100440.0;;;-1.3
58307;BMP280;44116;50.884;4.768;2024-01-16T03:31:12;100450.0;;;-1.4
58307;BMP280;44116;50.884;4.768;2024-01-16T03:33:11;100450.0;;;-1.5
58307;BMP280;44116;50.884;4.768;2024-01-16T03:35:11;100460.0;;;-1.4
58307;BMP280;44116;50.884;4.768;2024-01-16T03:37:10;100440.0;;;-1.5
58307;BMP280;44116;50.884;4.768;2024-01-16T03:39:09;100450.0;;;-1.5
58307;BMP280;44116;50.884;4.768;2024-01-16T03:41:10;100460.0;;;-1.4
58307;BMP280;44116;50.884;4.768;2024-01-16T03:43:08;100450.0;;;-1.4
58307;BMP280;44116;50.884;4.768;2024-01-16T03:45:08;100430.0;;;-1.5
58307;BMP280;44116;50.884;4.768;2024-01-16T03:47:07;100440.0;;;-1.6
58307;BMP280;44116;50.884;4.768;2024-01-16T03:49:07;100440.0;;;-1.6
58307;BMP280;44116;50.884;4.768;2024-01-16T03:51:06;100450.0;;;-1.6
58307;BMP280;44116;50.884;4.768;2024-01-16T03:53:06;100450.0;;;-1.5
58307;BMP280;44116;50.884;4.768;2024-01-16T03:55:05;100460.0;;;-1.4
58307;BMP280;44116;50.884;4.768;2024-01-16T03:57:05;100430.0;;;-1.6
58307;BMP280;44116;50.884;4.768;2024-01-16T04:01:03;100430.0;;;-1.6
58307;BMP280;44116;50.884;4.768;2024-01-16T04:03:03;100430.0;;;-1.6
58307;BMP280;44116;50.884;4.768;2024-01-16T04:05:03;100420.0;;;-1.7
58307;BMP280;44116;50.884;4.768;2024-01-16T04:07:02;100430.0;;;-1.6
58307;BMP280;44116;50.884;4.768;2024-01-16T04:09:01;100420.0;;;-1.6
58307;BMP280;44116;50.884;4.768;2024-01-16T04:11:01;100430.0;;;-1.6
58307;BMP280;44116;50.884;4.768;2024-01-16T04:13:00;100420.0;;;-1.6
58307;BMP280;44116;50.884;4.768;2024-01-16T04:15:00;100420.0;;;-1.6
58307;BMP280;44116;50.884;4.768;2024-01-16T04:16:59;100440.0;;;-1.5
58307;BMP280;44116;50.884;4.768;2024-01-16T04:18:59;100430.0;;;-1.4
58307;BMP280;44116;50.884;4.768;2024-01-16T04:20:58;100400.0;;;-1.6
58307;BMP280;44116;50.884;4.768;2024-01-16T04:22:57;100410.0;;;-1.7
58307;BMP280;44116;50.884;4.768;2024-01-16T04:24:57;100400.0;;;-1.9
58307;BMP280;44116;50.884;4.768;2024-01-16T04:26:56;100400.0;;;-1.8
58307;BMP280;44116;50.884;4.768;2024-01-16T04:28:56;100410.0;;;-1.8
58307;BMP280;44116;50.884;4.768;2024-01-16T04:30:55;100420.0;;;-1.7
58307;BMP280;44116;50.884;4.768;2024-01-16T04:32:55;100430.0;;;-1.6
58307;BMP280;44116;50.884;4.768;2024-01-16T04:34:54;100390.0;;;-1.8
58307;BMP280;44116;50.884;4.768;2024-01-16T04:36:54;100380.0;;;-1.8
58307;BMP280;44116;50.884;4.768;2024-01-16T04:38:53;100390.0;;;-1.8
58307;BMP280;44116;50.884;4.768;2024-01-16T04:40:52;100380.0;;;-1.8
58307;BMP280;44116;50.884;4.768;2024-01-16T04:42:52;100370.0;;;-1.8
58307;BMP280;44116;50.884;4.768;2024-01-16T04:44:51;100380.0;;;-1.8
58307;BMP280;44116;50.884;4.768;2024-01-16T04:46:51;100380.0;;;-1.9
58307;BMP280;44116;50.884;4.768;2024-01-16T04:48:50;100380.0;;;-1.9
58307;BMP280;44116;50.884;4.768;2024-01-16T04:50:50;100380.0;;;-2.0
58307;BMP280;44116;50.884;4.768;2024-01-16T04:52:49;100370.0;;;-2.1
58307;BMP280;44116;50.884;4.768;2024-01-16T04:54:49;100390.0;;;-2.0
58307;BMP280;44116;50.884;4.768;2024-01-16T04:56:48;100360.0;;;-2.1
58307;BMP280;44116;50.884;4.768;2024-01-16T04:58:48;100370.0;;;-2.1
58307;BMP280;44116;50.884;4.768;2024-01-16T05:00:47;100390.0;;;-2.1
58307;BMP280;44116;50.884;4.768;2024-01-16T05:04:46;100360.0;;;-2.2
58307;BMP280;44116;50.884;4.768;2024-01-16T05:06:49;100370.0;;;-2.2
58307;BMP280;44116;50.884;4.768;2024-01-16T05:08:45;100360.0;;;-2.2
58307;BMP280;44116;50.884;4.768;2024-01-16T05:10:44;100360.0;;;-2.2
58307;BMP280;44116;50.884;4.768;2024-01-16T05:14:43;100360.0;;;-2.3
58307;BMP280;44116;50.884;4.768;2024-01-16T05:16:43;100370.0;;;-2.3
58307;BMP280;44116;50.884;4.768;2024-01-16T05:18:42;100360.0;;;-2.4
58307;BMP280;44116;50.884;4.768;2024-01-16T05:20:42;100350.0;;;-2.5
58307;BMP280;44116;50.884;4.768;2024-01-16T05:22:41;100360.0;;;-2.5
58307;BMP280;44116;50.884;4.768;2024-01-16T05:24:41;100350.0;;;-2.6
58307;BMP280;44116;50.884;4.768;2024-01-16T05:26:40;100370.0;;;-2.6
58307;BMP280;44116;50.884;4.768;2024-01-16T05:28:40;100360.0;;;-2.5
58307;BMP280;44116;50.884;4.768;2024-01-16T05:30:39;100350.0;;;-2.7
58307;BMP280;44116;50.884;4.768;2024-01-16T05:32:39;100360.0;;;-2.7
58307;BMP280;44116;50.884;4.768;2024-01-16T05:34:38;100370.0;;;-2.8
58307;BMP280;44116;50.884;4.768;2024-01-16T05:36:38;100370.0;;;-2.8
58307;BMP280;44116;50.884;4.768;2024-01-16T05:38:37;100380.0;;;-2.7
58307;BMP280;44116;50.884;4.768;2024-01-16T05:40:38;100390.0;;;-2.6
58307;BMP280;44116;50.884;4.768;2024-01-16T05:42:37;100370.0;;;-2.7
58307;BMP280;44116;50.884;4.768;2024-01-16T05:44:35;100390.0;;;-2.6
58307;BMP280;44116;50.884;4.768;2024-01-16T05:46:35;100360.0;;;-2.7
58307;BMP280;44116;50.884;4.768;2024-01-16T05:48:34;100370.0;;;-2.7
58307;BMP280;44116;50.884;4.768;2024-01-16T05:50:34;100360.0;;;-2.9
58307;BMP280;44116;50.884;4.768;2024-01-16T05:52:35;100390.0;;;-2.8
58307;BMP280;44116;50.884;4.768;2024-01-16T05:56:32;100380.0;;;-2.9
58307;BMP280;44116;50.884;4.768;2024-01-16T05:58:32;100380.0;;;-2.8
58307;BMP280;44116;50.884;4.768;2024-01-16T06:00:31;100400.0;;;-2.8
58307;BMP280;44116;50.884;4.768;2024-01-16T06:02:31;100370.0;;;-3.0
58307;BMP280;44116;50.884;4.768;2024-01-16T06:04:30;100360.0;;;-3.0
58307;BMP280;44116;50.884;4.768;2024-01-16T06:06:29;100370.0;;;-3.0
58307;BMP280;44116;50.884;4.768;2024-01-16T06:08:29;100370.0;;;-3.0
58307;BMP280;44116;50.884;4.768;2024-01-16T06:10:28;100390.0;;;-2.9
58307;BMP280;44116;50.884;4.768;2024-01-16T06:12:28;100370.0;;;-3.0
58307;BMP280;44116;50.884;4.768;2024-01-16T06:14:27;100380.0;;;-3.0
58307;BMP280;44116;50.884;4.768;2024-01-16T06:16:27;100360.0;;;-3.1
58307;BMP280;44116;50.884;4.768;2024-01-16T06:18:26;100350.0;;;-3.2
58307;BMP280;44116;50.884;4.768;2024-01-16T06:20:25;100370.0;;;-3.2
58307;BMP280;44116;50.884;4.768;2024-01-16T06:22:25;100380.0;;;-3.1
58307;BMP280;44116;50.884;4.768;2024-01-16T06:24:24;100390.0;;;-3.0
58307;BMP280;44116;50.884;4.768;2024-01-16T06:26:24;100390.0;;;-3.0
58307;BMP280;44116;50.884;4.768;2024-01-16T06:28:23;100370.0;;;-3.1
58307;BMP280;44116;50.884;4.768;2024-01-16T06:30:23;100380.0;;;-3.1
58307;BMP280;44116;50.884;4.768;2024-01-16T06:32:22;100380.0;;;-3.0
58307;BMP280;44116;50.884;4.768;2024-01-16T06:34:22;100380.0;;;-3.1
58307;BMP280;44116;50.884;4.768;2024-01-16T06:36:21;100380.0;;;-3.0
58307;BMP280;44116;50.884;4.768;2024-01-16T06:38:20;100380.0;;;-3.1
58307;BMP280;44116;50.884;4.768;2024-01-16T06:40:20;100400.0;;;-3.0
58307;BMP280;44116;50.884;4.768;2024-01-16T06:42:19;100410.0;;;-2.8
58307;BMP280;44116;50.884;4.768;2024-01-16T06:44:19;100430.0;;;-2.7
58307;BMP280;44116;50.884;4.768;2024-01-16T06:46:18;100390.0;;;-2.9
58307;BMP280;44116;50.884;4.768;2024-01-16T06:48:19;100380.0;;;-2.9
58307;BMP280;44116;50.884;4.768;2024-01-16T06:50:17;100400.0;;;-2.8
58307;BMP280;44116;50.884;4.768;2024-01-16T06:52:16;100390.0;;;-2.8
58307;BMP280;44116;50.884;4.768;2024-01-16T06:54:16;100390.0;;;-2.8
58307;BMP280;44116;50.884;4.768;2024-01-16T06:56:15;100390.0;;;-2.8
58307;BMP280;44116;50.884;4.768;2024-01-16T06:58:15;100380.0;;;-2.8
58307;BMP280;44116;50.884;4.768;2024-01-16T07:00:15;100370.0;;;-2.8
58307;BMP280;44116;50.884;4.768;2024-01-16T07:02:14;100390.0;;;-2.7
58307;BMP280;44116;50.884;4.768;2024-01-16T07:04:13;100380.0;;;-2.8
58307;BMP280;44116;50.884;4.768;2024-01-16T07:06:12;100390.0;;;-2.7
58307;BMP280;44116;50.884;4.768;2024-01-16T07:08:12;100380.0;;;-2.7
58307;BMP280;44116;50.884;4.768;2024-01-16T07:10:11;100380.0;;;-2.6
58307;BMP280;44116;50.884;4.768;2024-01-16T07:12:11;100380.0;;;-2.6
58307;BMP280;44116;50.884;4.768;2024-01-16T07:14:10;100380.0;;;-2.6
58307;BMP280;44116;50.884;4.768;2024-01-16T07:16:10;100400.0;;;-2.5
58307;BMP280;44116;50.884;4.768;2024-01-16T07:18:09;100370.0;;;-2.5
58307;BMP280;44116;50.884;4.768;2024-01-16T07:20:09;100370.0;;;-2.5
58307;BMP280;44116;50.884;4.768;2024-01-16T07:22:08;100390.0;;;-2.5
58307;BMP280;44116;50.884;4.768;2024-01-16T07:24:07;100360.0;;;-2.7
58307;BMP280;44116;50.884;4.768;2024-01-16T07:26:07;100370.0;;;-2.7
58307;BMP280;44116;50.884;4.768;2024-01-16T07:28:06;100390.0;;;-2.5
58307;BMP280;44116;50.884;4.768;2024-01-16T07:32:05;100390.0;;;-2.6
58307;BMP280;44116;50.884;4.768;2024-01-16T07:34:05;100400.0;;;-2.5
58307;BMP280;44116;50.884;4.768;2024-01-16T07:36:05;100370.0;;;-2.6
58307;BMP280;44116;50.884;4.768;2024-01-16T07:38:03;100380.0;;;-2.6
58307;BMP280;44116;50.884;4.768;2024-01-16T07:40:03;100380.0;;;-2.5
58307;BMP280;44116;50.884;4.768;2024-01-16T07:42:02;100400.0;;;-2.5
58307;BMP280;44116;50.884;4.768;2024-01-16T07:44:02;100400.0;;;-2.5
58307;BMP280;44116;50.884;4.768;2024-01-16T07:46:01;100380.0;;;-2.5
58307;BMP280;44116;50.884;4.768;2024-01-16T07:48:01;100400.0;;;-2.4
58307;BMP280;44116;50.884;4.768;2024-01-16T07:50:00;100400.0;;;-2.3
58307;BMP280;44116;50.884;4.768;2024-01-16T07:52:00;100380.0;;;-2.5
58307;BMP280;44116;50.884;4.768;2024-01-16T07:54:04;100370.0;;;-2.5
58307;BMP280;44116;50.884;4.768;2024-01-16T07:55:58;100390.0;;;-2.4
58307;BMP280;44116;50.884;4.768;2024-01-16T07:57:58;100390.0;;;-2.3
58307;BMP280;44116;50.884;4.768;2024-01-16T07:59:57;100390.0;;;-2.4
58307;BMP280;44116;50.884;4.768;2024-01-16T08:01:57;100390.0;;;-2.4
58307;BMP280;44116;50.884;4.768;2024-01-16T08:03:56;100390.0;;;-2.4
58307;BMP280;44116;50.884;4.768;2024-01-16T08:05:56;100390.0;;;-2.4
58307;BMP280;44116;50.884;4.768;2024-01-16T08:07:55;100400.0;;;-2.3
58307;BMP280;44116;50.884;4.768;2024-01-16T08:09:54;100390.0;;;-2.5
58307;BMP280;44116;50.884;4.768;2024-01-16T08:11:54;100400.0;;;-2.4
58307;BMP280;44116;50.884;4.768;2024-01-16T08:13:53;100390.0;;;-2.4
58307;BMP280;44116;50.884;4.768;2024-01-16T08:15:53;100390.0;;;-2.4
58307;BMP280;44116;50.884;4.768;2024-01-16T08:17:52;100390.0;;;-2.4
58307;BMP280;44116;50.884;4.768;2024-01-16T08:19:52;100400.0;;;-2.3
58307;BMP280;44116;50.884;4.768;2024-01-16T08:21:51;100390.0;;;-2.3
58307;BMP280;44116;50.884;4.768;2024-01-16T08:23:50;100390.0;;;-2.3
58307;BMP280;44116;50.884;4.768;2024-01-16T08:25:50;100400.0;;;-2.3
58307;BMP280;44116;50.884;4.768;2024-01-16T08:27:49;100390.0;;;-2.3
58307;BMP280;44116;50.884;4.768;2024-01-16T08:29:49;100430.0;;;-2.0
58307;BMP280;44116;50.884;4.768;2024-01-16T08:31:48;100400.0;;;-2.1
58307;BMP280;44116;50.884;4.768;2024-01-16T08:33:48;100400.0;;;-2.2
58307;BMP280;44116;50.884;4.768;2024-01-16T08:37:47;100430.0;;;-2.0
58307;BMP280;44116;50.884;4.768;2024-01-16T08:39:46;100420.0;;;-2.0
58307;BMP280;44116;50.884;4.768;2024-01-16T08:41:45;100440.0;;;-2.0
58307;BMP280;44116;50.884;4.768;2024-01-16T08:43:45;100440.0;;;-1.9
58307;BMP280;44116;50.884;4.768;2024-01-16T08:47:44;100440.0;;;-2.0
58307;BMP280;44116;50.884;4.768;2024-01-16T08:49:43;100430.0;;;-1.9
58307;BMP280;44116;50.884;4.768;2024-01-16T08:51:43;100430.0;;;-1.8
58307;BMP280;44116;50.884;4.768;2024-01-16T08:53:42;100430.0;;;-1.9
58307;BMP280;44116;50.884;4.768;2024-01-16T08:55:42;100430.0;;;-1.7
58307;BMP280;44116;50.884;4.768;2024-01-16T08:57:41;100420.0;;;-1.6
58307;BMP280;44116;50.884;4.768;2024-01-16T08:59:41;100420.0;;;-1.6
58307;BMP280;44116;50.884;4.768;2024-01-16T09:01:40;100410.0;;;-1.7
58307;BMP280;44116;50.884;4.768;2024-01-16T09:03:39;100420.0;;;-1.7
58307;BMP280;44116;50.884;4.768;2024-01-16T09:05:39;100400.0;;;-1.6
58307;BMP280;44116;50.884;4.768;2024-01-16T09:07:38;100410.0;;;-1.5
58307;BMP280;44116;50.884;4.768;2024-01-16T09:09:38;100390.0;;;-1.5
58307;BMP280;44116;50.884;4.768;2024-01-16T09:11:37;100410.0;;;-1.5
58307;BMP280;44116;50.884;4.768;2024-01-16T09:13:36;100390.0;;;-1.6
58307;BMP280;44116;50.884;4.768;2024-01-16T09:15:36;100410.0;;;-1.4
58307;BMP280;44116;50.884;4.768;2024-01-16T09:17:35;100370.0;;;-1.3
58307;BMP280;44116;50.884;4.768;2024-01-16T09:19:35;100370.0;;;-1.2
58307;BMP280;44116;50.884;4.768;2024-01-16T09:21:34;100360.0;;;-1.4
58307;BMP280;44116;50.884;4.768;2024-01-16T09:23:34;100400.0;;;-1.2
58307;BMP280;44116;50.884;4.768;2024-01-16T09:25:33;100370.0;;;-1.1
58307;BMP280;44116;50.884;4.768;2024-01-16T09:27:33;100370.0;;;-1.4
58307;BMP280;44116;50.884;4.768;2024-01-16T09:29:32;100390.0;;;-1.5
58307;BMP280;44116;50.884;4.768;2024-01-16T09:31:31;100370.0;;;-1.5
58307;BMP280;44116;50.884;4.768;2024-01-16T09:33:31;100410.0;;;-1.2
58307;BMP280;44116;50.884;4.768;2024-01-16T09:35:30;100380.0;;;-1.3
58307;BMP280;44116;50.884;4.768;2024-01-16T09:37:30;100360.0;;;-1.6
58307;BMP280;44116;50.884;4.768;2024-01-16T09:39:29;100350.0;;;-1.6
58307;BMP280;44116;50.884;4.768;2024-01-16T09:41:29;100360.0;;;-1.4
58307;BMP280;44116;50.884;4.768;2024-01-16T09:43:28;100340.0;;;-1.6
58307;BMP280;44116;50.884;4.768;2024-01-16T09:45:28;100340.0;;;-1.7
58307;BMP280;44116;50.884;4.768;2024-01-16T09:47:27;100370.0;;;-1.5
58307;BMP280;44116;50.884;4.768;2024-01-16T09:49:27;100390.0;;;-1.3
58307;BMP280;44116;50.884;4.768;2024-01-16T09:51:28;100360.0;;;-1.2
58307;BMP280;44116;50.884;4.768;2024-01-16T09:53:25;100350.0;;;-1.4
58307;BMP280;44116;50.884;4.768;2024-01-16T09:55:25;100370.0;;;-1.3
58307;BMP280;44116;50.884;4.768;2024-01-16T09:57:25;100330.0;;;-1.6
58307;BMP280;44116;50.884;4.768;2024-01-16T09:59:24;100380.0;;;-1.4
58307;BMP280;44116;50.884;4.768;2024-01-16T10:01:23;100350.0;;;-1.4
58307;BMP280;44116;50.884;4.768;2024-01-16T10:03:23;100340.0;;;-1.4
58307;BMP280;44116;50.884;4.768;2024-01-16T10:05:22;100320.0;;;-1.3
58307;BMP280;44116;50.884;4.768;2024-01-16T10:07:22;100330.0;;;-1.4
58307;BMP280;44116;50.884;4.768;2024-01-16T10:09:21;100330.0;;;-1.4
58307;BMP280;44116;50.884;4.768;2024-01-16T10:11:21;100340.0;;;-1.4
58307;BMP280;44116;50.884;4.768;2024-01-16T10:13:20;100340.0;;;-1.1
58307;BMP280;44116;50.884;4.768;2024-01-16T10:15:20;100330.0;;;-1.1
58307;BMP280;44116;50.884;4.768;2024-01-16T10:17:19;100320.0;;;-1.1
58307;BMP280;44116;50.884;4.768;2024-01-16T10:19:18;100330.0;;;-1.1
58307;BMP280;44116;50.884;4.768;2024-01-16T10:21:19;100320.0;;;-1.1
58307;BMP280;44116;50.884;4.768;2024-01-16T10:23:22;100310.0;;;-1.2
58307;BMP280;44116;50.884;4.768;2024-01-16T10:25:17;100300.0;;;-1.3
58307;BMP280;44116;50.884;4.768;2024-01-16T10:27:16;100310.0;;;-1.2
58307;BMP280;44116;50.884;4.768;2024-01-16T10:29:16;100340.0;;;-1.1
58307;BMP280;44116;50.884;4.768;2024-01-16T10:31:15;100300.0;;;-1.2
58307;BMP280;44116;50.884;4.768;2024-01-16T10:33:15;100310.0;;;-1.2
58307;BMP280;44116;50.884;4.768;2024-01-16T10:35:14;100300.0;;;-1.1
58307;BMP280;44116;50.884;4.768;2024-01-16T10:37:14;100290.0;;;-0.9
58307;BMP280;44116;50.884;4.768;2024-01-16T10:39:13;100290.0;;;-0.9
58307;BMP280;44116;50.884;4.768;2024-01-16T10:41:13;100300.0;;;-0.8
58307;BMP280;44116;50.884;4.768;2024-01-16T10:43:13;100290.0;;;-0.6
58307;BMP280;44116;50.884;4.768;2024-01-16T10:47:11;100280.0;;;-0.7
58307;BMP280;44116;50.884;4.768;2024-01-16T10:49:10;100280.0;;;-0.6
58307;BMP280;44116;50.884;4.768;2024-01-16T10:53:09;100310.0;;;-0.3
58307;BMP280;44116;50.884;4.768;2024-01-16T10:55:09;100310.0;;;-0.2
58307;BMP280;44116;50.884;4.768;2024-01-16T10:57:08;100300.0;;;-0.2
58307;BMP280;44116;50.884;4.768;2024-01-16T10:59:09;100290.0;;;-0.1
58307;BMP280;44116;50.884;4.768;2024-01-16T11:01:10;100270.0;;;0.1
58307;BMP280;44116;50.884;4.768;2024-01-16T11:03:07;100250.0;;;-0.2
58307;BMP280;44116;50.884;4.768;2024-01-16T11:05:06;100260.0;;;-0.0
58307;BMP280;44116;50.884;4.768;2024-01-16T11:07:06;100270.0;;;0.1
58307;BMP280;44116;50.884;4.768;2024-01-16T11:09:05;100260.0;;;-0.1
58307;BMP280;44116;50.884;4.768;2024-01-16T11:11:05;100250.0;;;-0.1
58307;BMP280;44116;50.884;4.768;2024-01-16T11:13:04;100240.0;;;-0.2
58307;BMP280;44116;50.884;4.768;2024-01-16T11:15:04;100250.0;;;0.1
58307;BMP280;44116;50.884;4.768;2024-01-16T11:17:03;100260.0;;;0.2
58307;BMP280;44116;50.884;4.768;2024-01-16T11:19:03;100230.0;;;0.3
58307;BMP280;44116;50.884;4.768;2024-01-16T11:21:03;100250.0;;;0.2
58307;BMP280;44116;50.884;4.768;2024-01-16T11:23:02;100220.0;;;0.2
58307;BMP280;44116;50.884;4.768;2024-01-16T11:25:09;100230.0;;;0.3
58307;BMP280;44116;50.884;4.768;2024-01-16T11:27:01;100250.0;;;0.6
58307;BMP280;44116;50.884;4.768;2024-01-16T11:29:00;100220.0;;;0.5
58307;BMP280;44116;50.884;4.768;2024-01-16T11:32:59;100200.0;;;0.3
58307;BMP280;44116;50.884;4.768;2024-01-16T11:36:58;100180.0;;;0.4
58307;BMP280;44116;50.884;4.768;2024-01-16T11:38:58;100180.0;;;0.6
58307;BMP280;44116;50.884;4.768;2024-01-16T11:40:57;100180.0;;;0.6
58307;BMP280;44116;50.884;4.768;2024-01-16T11:42:57;100170.0;;;0.6
58307;BMP280;44116;50.884;4.768;2024-01-16T11:47:03;100160.0;;;0.6
58307;BMP280;44116;50.884;4.768;2024-01-16T11:49:01;100140.0;;;0.8
58307;BMP280;44116;50.884;4.768;2024-01-16T11:50:55;100150.0;;;0.9
58307;BMP280;44116;50.884;4.768;2024-01-16T11:52:54;100140.0;;;0.9
58307;BMP280;44116;50.884;4.768;2024-01-16T11:54:54;100130.0;;;1.0
58307;BMP280;44116;50.884;4.768;2024-01-16T11:58:56;100110.0;;;0.9
58307;BMP280;44116;50.884;4.768;2024-01-16T12:00:52;100100.0;;;1.0
58307;BMP280;44116;50.884;4.768;2024-01-16T12:02:52;100070.0;;;0.8
58307;BMP280;44116;50.884;4.768;2024-01-16T12:06:56;100080.0;;;0.9
58307;BMP280;44116;50.884;4.768;2024-01-16T12:08:50;100060.0;;;0.8
58307;BMP280;44116;50.884;4.768;2024-01-16T12:10:50;100070.0;;;1.1
58307;BMP280;44116;50.884;4.768;2024-01-16T12:12:50;100050.0;;;1.2
58307;BMP280;44116;50.884;4.768;2024-01-16T12:14:52;100030.0;;;1.0
58307;BMP280;44116;50.884;4.768;2024-01-16T12:16:49;100040.0;;;1.0
58307;BMP280;44116;50.884;4.768;2024-01-16T12:18:48;100020.0;;;1.1
58307;BMP280;44116;50.884;4.768;2024-01-16T12:20:47;100020.0;;;1.4
58307;BMP280;44116;50.884;4.768;2024-01-16T12:22:52;99990.0;;;1.3
58307;BMP280;44116;50.884;4.768;2024-01-16T12:24:46;99980.0;;;1.0